Time;durP1;ratioP1;P1;durP2;ratioP2;P2;SDS_P1;SDS_P2;PMS_P1;PMS_P2;Temp;Humidity;BMP_temperature;BMP_pressure;BME280_temperature;BME280_humidity;BME280_pressure;Samples;Min_cycle;Max_cycle;Signal;HPM_P1;HPM_P2
2023/06/03 00:02:09;;;;;;;;;;;17.30;81.20;;;;;;5031620;28;19913;-74
2023/06/03 00:04:41;;;;;;;;;;;17.40;81.80;;;;;;5023898;28;19920;-74
2023/06/03 00:07:07;;;;;;;;;;;17.40;81.20;;;;;;5022426;28;19925;-74
2023/06/03 00:09:32;;;;;;;;;;;17.40;81.20;;;;;;5036081;28;19908;-74
2023/06/03 00:11:58;;;;;;;;;;;17.40;81.40;;;;;;5026854;28;19908;-74
2023/06/03 00:14:23;;;;;;;;;;;17.40;81.20;;;;;;5029820;28;20566;-74
2023/06/03 00:16:49;;;;;;;;;;;17.40;81.30;;;;;;5024335;28;19956;-75
2023/06/03 00:19:15;;;;;;;;;;;17.30;81.70;;;;;;5026960;28;19909;-74
2023/06/03 00:21:45;;;;;;;;;;;17.30;81.70;;;;;;5024408;28;19908;-74
2023/06/03 00:24:11;;;;;;;;;;;17.20;82.00;;;;;;5026250;28;19909;-74
2023/06/03 00:26:36;;;;;;;;;;;17.20;82.00;;;;;;5037925;28;19913;-74
2023/06/03 00:29:02;;;;;;;;;;;17.20;82.10;;;;;;5040988;28;19971;-74
2023/06/03 00:31:27;;;;;;;;;;;17.10;82.60;;;;;;5036570;28;19929;-74
2023/06/03 00:33:53;;;;;;;;;;;17.10;82.60;;;;;;5030700;28;19908;-74
2023/06/03 00:36:18;;;;;;;;;;;17.10;82.50;;;;;;5038592;28;19909;-74
2023/06/03 00:38:44;;;;;;;;;;;17.10;82.90;;;;;;5029817;28;19931;-74
2023/06/03 00:41:09;;;;;;;;;;;17.00;83.00;;;;;;5014117;28;19909;-74
2023/06/03 00:43:35;;;;;;;;;;;16.90;83.50;;;;;;5029164;28;20051;-74
2023/06/03 00:46:00;;;;;;;;;;;16.80;83.80;;;;;;5025614;28;19909;-74
2023/06/03 00:48:26;;;;;;;;;;;16.70;84.30;;;;;;5026908;28;19962;-74
2023/06/03 00:50:52;;;;;;;;;;;16.60;84.60;;;;;;5023902;28;20380;-73
2023/06/03 00:53:17;;;;;;;;;;;16.60;84.50;;;;;;5029877;28;19909;-73
2023/06/03 00:55:43;;;;;;;;;;;16.60;85.00;;;;;;5028826;28;19904;-74
2023/06/03 00:58:09;;;;;;;;;;;16.50;85.00;;;;;;5026668;28;19909;-74
2023/06/03 01:00:35;;;;;;;;;;;16.50;85.00;;;;;;5026471;28;19909;-74
2023/06/03 01:03:01;;;;;;;;;;;16.50;85.20;;;;;;5024704;28;19932;-74
2023/06/03 01:05:27;;;;;;;;;;;16.50;85.50;;;;;;5034494;28;19916;-74
2023/06/03 01:07:56;;;;;;;;;;;16.50;85.50;;;;;;5034842;28;19909;-74
2023/06/03 01:10:22;;;;;;;;;;;16.50;85.70;;;;;;5032794;28;19954;-74
2023/06/03 01:13:07;;;;;;;;;;;16.50;85.60;;;;;;5032153;28;20367;-74
2023/06/03 01:15:33;;;;;;;;;;;16.60;85.70;;;;;;5025390;28;20315;-74
2023/06/03 01:18:05;;;;;;;;;;;16.60;85.80;;;;;;5028633;28;19912;-74
2023/06/03 01:20:32;;;;;;;;;;;16.50;86.10;;;;;;5027004;28;20411;-74
2023/06/03 01:23:11;;;;;;;;;;;16.50;85.90;;;;;;5023020;28;20032;-74
2023/06/03 01:25:40;;;;;;;;;;;16.50;86.10;;;;;;5033654;28;19913;-74
2023/06/03 01:28:05;;;;;;;;;;;16.50;86.40;;;;;;5041154;28;20469;-74
2023/06/03 01:30:31;;;;;;;;;;;16.40;86.70;;;;;;5031653;28;19920;-74
2023/06/03 01:32:57;;;;;;;;;;;16.50;86.60;;;;;;5040908;28;19915;-74
2023/06/03 01:35:23;;;;;;;;;;;16.50;86.70;;;;;;5032429;28;20012;-74
2023/06/03 01:37:48;;;;;;;;;;;16.50;86.80;;;;;;5034385;28;19915;-75
2023/06/03 01:40:14;;;;;;;;;;;16.50;87.00;;;;;;5030329;28;20371;-74
2023/06/03 01:42:40;;;;;;;;;;;16.50;87.10;;;;;;5038071;28;19908;-74
2023/06/03 01:45:06;;;;;;;;;;;16.50;86.90;;;;;;5038083;28;19915;-74
2023/06/03 01:47:31;;;;;;;;;;;16.50;86.90;;;;;;5029372;28;19916;-74
2023/06/03 01:49:57;;;;;;;;;;;16.50;87.20;;;;;;5033587;28;19935;-74
2023/06/03 01:52:22;;;;;;;;;;;16.50;87.50;;;;;;5024868;28;19916;-74
2023/06/03 01:54:48;;;;;;;;;;;16.50;87.30;;;;;;5034743;28;19916;-74
2023/06/03 01:57:14;;;;;;;;;;;16.50;87.10;;;;;;5030028;28;20439;-74
2023/06/03 01:59:40;;;;;;;;;;;16.60;87.20;;;;;;5040228;28;19931;-74
2023/06/03 02:02:06;;;;;;;;;;;16.50;87.60;;;;;;5030887;28;19916;-74
2023/06/03 02:04:31;;;;;;;;;;;16.40;87.80;;;;;;5025566;28;19909;-74
2023/06/03 02:07:01;;;;;;;;;;;16.40;88.10;;;;;;5034427;28;19911;-74
2023/06/03 02:09:28;;;;;;;;;;;16.30;88.40;;;;;;5030046;28;19909;-74
2023/06/03 02:11:54;;;;;;;;;;;16.20;88.70;;;;;;5032631;28;20003;-74
2023/06/03 02:14:20;;;;;;;;;;;16.00;89.20;;;;;;5034748;28;19940;-74
2023/06/03 02:16:46;;;;;;;;;;;15.90;89.70;;;;;;5028899;28;20414;-74
2023/06/03 02:19:13;;;;;;;;;;;15.90;89.90;;;;;;5027762;28;19909;-74
2023/06/03 02:21:39;;;;;;;;;;;15.90;89.90;;;;;;5027701;28;19979;-73
2023/06/03 02:24:06;;;;;;;;;;;15.80;89.90;;;;;;5028064;28;19927;-74
2023/06/03 02:26:32;;;;;;;;;;;15.80;90.00;;;;;;5038371;28;20318;-73
2023/06/03 02:28:57;;;;;;;;;;;15.80;89.80;;;;;;5024923;28;19921;-74
2023/06/03 02:31:23;;;;;;;;;;;15.80;90.00;;;;;;5030826;28;19925;-73
2023/06/03 02:33:48;;;;;;;;;;;15.70;90.00;;;;;;5033998;28;20268;-74
2023/06/03 02:36:16;;;;;;;;;;;15.70;90.00;;;;;;5036088;28;20454;-73
2023/06/03 02:38:42;;;;;;;;;;;15.70;90.10;;;;;;5035537;28;19956;-74
2023/06/03 02:41:08;;;;;;;;;;;15.60;90.20;;;;;;5034518;28;20389;-74
2023/06/03 02:43:33;;;;;;;;;;;15.60;90.20;;;;;;5031195;28;19909;-74
2023/06/03 02:45:59;;;;;;;;;;;15.60;90.30;;;;;;5035448;28;20402;-74
2023/06/03 02:48:24;;;;;;;;;;;15.50;90.40;;;;;;5029919;28;20441;-74
2023/06/03 02:50:50;;;;;;;;;;;15.50;90.40;;;;;;5033193;28;19917;-74
2023/06/03 02:53:17;;;;;;;;;;;15.50;90.40;;;;;;5037255;28;20427;-74
2023/06/03 02:55:43;;;;;;;;;;;15.40;90.50;;;;;;5030303;28;19909;-74
2023/06/03 02:58:08;;;;;;;;;;;15.40;90.60;;;;;;5029854;28;19909;-74
2023/06/03 03:00:34;;;;;;;;;;;15.50;90.60;;;;;;5029090;28;20455;-74
2023/06/03 03:03:00;;;;;;;;;;;15.40;90.60;;;;;;5032070;28;19935;-74
2023/06/03 03:05:26;;;;;;;;;;;15.50;90.60;;;;;;5040495;28;20300;-74
2023/06/03 03:07:51;;;;;;;;;;;15.40;90.60;;;;;;5027118;28;19916;-74
2023/06/03 03:10:17;;;;;;;;;;;15.40;90.60;;;;;;5040980;28;19924;-73
2023/06/03 03:12:42;;;;;;;;;;;15.40;90.50;;;;;;5030273;28;19909;-74
2023/06/03 03:15:08;;;;;;;;;;;15.40;90.50;;;;;;5007040;28;19919;-74
2023/06/03 03:17:34;;;;;;;;;;;15.30;90.70;;;;;;5024028;28;19909;-74
2023/06/03 03:19:59;;;;;;;;;;;15.20;90.80;;;;;;5026118;28;20400;-74
2023/06/03 03:22:27;;;;;;;;;;;15.20;90.90;;;;;;5024055;28;19989;-74
2023/06/03 03:24:55;;;;;;;;;;;15.10;90.80;;;;;;5038242;28;19909;-74
2023/06/03 03:27:20;;;;;;;;;;;15.20;90.90;;;;;;5042074;28;19977;-75
2023/06/03 03:29:46;;;;;;;;;;;15.20;90.70;;;;;;5028419;28;19929;-74
2023/06/03 03:32:12;;;;;;;;;;;15.30;90.60;;;;;;5023877;28;19912;-73
2023/06/03 03:34:38;;;;;;;;;;;15.30;90.40;;;;;;5034158;28;20380;-74
2023/06/03 03:37:08;;;;;;;;;;;15.20;90.60;;;;;;5013786;28;20559;-74
2023/06/03 03:39:37;;;;;;;;;;;15.20;90.70;;;;;;5029796;28;19909;-73
2023/06/03 03:42:02;;;;;;;;;;;15.30;90.60;;;;;;5031998;28;19913;-73
2023/06/03 03:44:31;;;;;;;;;;;15.20;90.60;;;;;;5030763;28;19936;-73
2023/06/03 03:47:03;;;;;;;;;;;15.30;90.50;;;;;;5038372;28;19913;-73
2023/06/03 03:49:30;;;;;;;;;;;15.30;90.50;;;;;;5037084;28;20094;-73
2023/06/03 03:51:57;;;;;;;;;;;15.30;90.50;;;;;;5022846;28;19913;-73
2023/06/03 03:54:23;;;;;;;;;;;15.20;90.50;;;;;;5030156;28;19909;-73
2023/06/03 03:56:55;;;;;;;;;;;15.20;90.60;;;;;;5024860;28;19916;-74
2023/06/03 03:59:21;;;;;;;;;;;15.20;90.50;;;;;;5023276;28;19909;-74
2023/06/03 04:01:46;;;;;;;;;;;15.20;90.50;;;;;;5032153;28;19912;-74
2023/06/03 04:04:17;;;;;;;;;;;15.20;90.60;;;;;;5023605;28;19912;-74
2023/06/03 04:06:42;;;;;;;;;;;15.20;90.60;;;;;;5030395;28;20676;-73
2023/06/03 04:09:10;;;;;;;;;;;15.20;90.60;;;;;;5038714;28;19913;-74
2023/06/03 04:11:41;;;;;;;;;;;15.20;90.60;;;;;;5029785;28;19921;-74
2023/06/03 04:14:08;;;;;;;;;;;15.10;90.60;;;;;;5025542;28;19917;-74
2023/06/03 04:16:41;;;;;;;;;;;15.10;90.60;;;;;;5025365;28;20360;-74
2023/06/03 04:19:12;;;;;;;;;;;15.20;90.60;;;;;;5025028;28;19974;-74
2023/06/03 04:21:38;;;;;;;;;;;15.20;90.50;;;;;;5024945;28;19905;-74
2023/06/03 04:24:04;;;;;;;;;;;15.30;90.40;;;;;;5022994;28;19920;-74
2023/06/03 04:26:30;;;;;;;;;;;15.30;90.30;;;;;;5038106;28;19909;-74
2023/06/03 04:28:56;;;;;;;;;;;15.30;90.30;;;;;;5039623;28;19921;-74
2023/06/03 04:31:21;;;;;;;;;;;15.40;90.20;;;;;;5038568;28;19978;-74
2023/06/03 04:33:47;;;;;;;;;;;15.40;90.10;;;;;;5040856;28;19908;-74
2023/06/03 04:36:12;;;;;;;;;;;15.50;90.10;;;;;;5040677;28;20216;-74
2023/06/03 04:38:38;;;;;;;;;;;15.50;90.10;;;;;;5030015;28;20003;-74
2023/06/03 04:41:04;;;;;;;;;;;15.50;90.00;;;;;;5027597;28;19913;-74
2023/06/03 04:43:29;;;;;;;;;;;15.60;89.80;;;;;;5038671;28;19913;-74
2023/06/03 04:45:55;;;;;;;;;;;15.50;89.90;;;;;;5038277;28;20699;-74
2023/06/03 04:48:25;;;;;;;;;;;15.50;89.90;;;;;;5018825;28;20453;-75
2023/06/03 04:50:50;;;;;;;;;;;15.40;90.00;;;;;;5037224;28;20007;-74
2023/06/03 04:53:16;;;;;;;;;;;15.40;90.00;;;;;;5030083;28;19939;-74
2023/06/03 04:55:45;;;;;;;;;;;15.50;89.80;;;;;;5027574;28;20303;-74
2023/06/03 04:58:11;;;;;;;;;;;15.60;89.40;;;;;;5030223;28;19917;-74
2023/06/03 05:00:36;;;;;;;;;;;15.70;88.90;;;;;;5028440;28;19913;-74
2023/06/03 05:03:08;;;;;;;;;;;15.80;88.70;;;;;;5032135;28;20378;-74
2023/06/03 05:05:35;;;;;;;;;;;15.80;88.60;;;;;;5034632;28;19938;-74
2023/06/03 05:08:00;;;;;;;;;;;15.80;88.50;;;;;;5043017;28;19967;-74
2023/06/03 05:10:27;;;;;;;;;;;15.90;88.60;;;;;;5034954;28;20440;-75
2023/06/03 05:12:53;;;;;;;;;;;16.00;88.50;;;;;;5044393;28;20697;-75
2023/06/03 05:15:19;;;;;;;;;;;16.10;87.90;;;;;;5043959;28;19915;-74
2023/06/03 05:17:44;;;;;;;;;;;16.10;88.10;;;;;;5042329;28;20316;-74
2023/06/03 05:20:10;;;;;;;;;;;16.00;88.30;;;;;;5035349;28;20011;-74
2023/06/03 05:22:36;;;;;;;;;;;16.10;88.10;;;;;;5040325;28;19924;-74
2023/06/03 05:25:03;;;;;;;;;;;16.10;88.00;;;;;;5039881;28;20531;-74
2023/06/03 05:27:29;;;;;;;;;;;16.10;88.10;;;;;;5038657;28;19916;-74
2023/06/03 05:29:55;;;;;;;;;;;16.10;88.10;;;;;;5036199;28;19996;-74
2023/06/03 05:32:20;;;;;;;;;;;16.00;88.30;;;;;;5035438;28;20530;-74
2023/06/03 05:34:46;;;;;;;;;;;16.10;88.30;;;;;;5033053;28;19916;-74
2023/06/03 05:37:11;;;;;;;;;;;16.00;88.80;;;;;;5040413;28;19920;-74
2023/06/03 05:39:37;;;;;;;;;;;16.00;89.30;;;;;;5042050;28;19913;-74
2023/06/03 05:42:02;;;;;;;;;;;15.90;89.40;;;;;;5035823;28;19951;-74
2023/06/03 05:44:28;;;;;;;;;;;15.90;89.20;;;;;;5042944;28;19923;-75
2023/06/03 05:46:53;;;;;;;;;;;15.90;89.10;;;;;;5039273;28;20611;-74
2023/06/03 05:49:19;;;;;;;;;;;16.00;89.50;;;;;;5036262;28;19913;-74
2023/06/03 05:51:45;;;;;;;;;;;15.90;89.50;;;;;;5031719;28;20399;-74
2023/06/03 05:54:10;;;;;;;;;;;15.90;89.60;;;;;;5035374;28;19919;-74
2023/06/03 05:56:36;;;;;;;;;;;15.90;89.60;;;;;;5031823;28;19920;-74
2023/06/03 05:59:01;;;;;;;;;;;15.90;89.60;;;;;;5037708;28;20446;-75
2023/06/03 06:01:27;;;;;;;;;;;16.00;89.40;;;;;;5032468;28;20027;-74
2023/06/03 06:03:52;;;;;;;;;;;16.00;89.30;;;;;;5035831;28;20446;-74
2023/06/03 06:06:18;;;;;;;;;;;16.00;89.70;;;;;;5040670;28;20434;-74
2023/06/03 06:08:43;;;;;;;;;;;16.00;89.90;;;;;;5037628;28;19917;-75
2023/06/03 06:11:09;;;;;;;;;;;16.00;90.20;;;;;;5028137;28;20720;-74
2023/06/03 06:13:35;;;;;;;;;;;16.00;89.80;;;;;;5031097;28;19917;-75
2023/06/03 06:16:04;;;;;;;;;;;16.00;89.60;;;;;;5035135;28;19952;-75
2023/06/03 06:18:29;;;;;;;;;;;16.00;89.60;;;;;;5030018;28;20023;-74
2023/06/03 06:20:55;;;;;;;;;;;16.00;89.50;;;;;;5033924;28;19912;-74
2023/06/03 06:23:21;;;;;;;;;;;16.10;89.60;;;;;;5031644;28;19955;-74
2023/06/03 06:25:48;;;;;;;;;;;16.10;89.80;;;;;;5036903;28;20015;-75
2023/06/03 06:28:14;;;;;;;;;;;16.10;89.60;;;;;;5033223;28;20113;-76
2023/06/03 06:30:40;;;;;;;;;;;16.10;89.30;;;;;;5012597;28;20039;-78
2023/06/03 06:33:05;;;;;;;;;;;16.20;89.30;;;;;;5039119;28;19919;-78
2023/06/03 06:35:32;;;;;;;;;;;16.20;89.20;;;;;;5037689;28;19952;-77
2023/06/03 06:37:57;;;;;;;;;;;16.20;89.30;;;;;;5030411;28;20418;-77
2023/06/03 06:40:26;;;;;;;;;;;16.30;89.10;;;;;;5027652;28;19924;-76
2023/06/03 06:42:52;;;;;;;;;;;16.30;89.20;;;;;;5037675;28;19909;-77
2023/06/03 06:45:25;;;;;;;;;;;16.30;89.30;;;;;;5031903;28;19971;-77
2023/06/03 06:47:53;;;;;;;;;;;16.30;89.10;;;;;;5031946;28;20048;-76
2023/06/03 06:50:31;;;;;;;;;;;16.40;88.60;;;;;;5037893;28;20327;-77
2023/06/03 06:52:56;;;;;;;;;;;16.40;88.70;;;;;;5025857;28;19917;-77
2023/06/03 06:55:42;;;;;;;;;;;16.50;88.20;;;;;;5034381;28;19908;-75
2023/06/03 06:58:09;;;;;;;;;;;16.50;88.00;;;;;;5004444;28;19960;-76
2023/06/03 07:00:34;;;;;;;;;;;16.50;87.90;;;;;;5026581;28;19953;-78
2023/06/03 07:03:00;;;;;;;;;;;16.50;87.70;;;;;;5035556;28;20539;-76
2023/06/03 07:05:26;;;;;;;;;;;16.50;87.50;;;;;;5025273;28;19975;-76
2023/06/03 07:07:52;;;;;;;;;;;16.70;87.10;;;;;;5012597;28;20371;-75
2023/06/03 07:10:20;;;;;;;;;;;16.80;86.70;;;;;;5026439;28;20024;-76
2023/06/03 07:12:47;;;;;;;;;;;16.90;86.20;;;;;;5011152;28;19924;-76
2023/06/03 07:15:12;;;;;;;;;;;17.00;86.20;;;;;;5030324;28;19912;-76
2023/06/03 07:17:39;;;;;;;;;;;17.00;85.70;;;;;;5040496;28;19915;-76
2023/06/03 07:20:05;;;;;;;;;;;17.00;85.80;;;;;;5043290;28;19956;-76
2023/06/03 07:22:31;;;;;;;;;;;17.10;85.50;;;;;;5035295;28;19916;-76
2023/06/03 07:24:57;;;;;;;;;;;17.20;85.20;;;;;;5032600;28;19912;-76
2023/06/03 07:27:28;;;;;;;;;;;17.30;84.90;;;;;;5014314;28;19921;-76
2023/06/03 07:29:58;;;;;;;;;;;17.40;84.80;;;;;;5031586;28;19924;-76
2023/06/03 07:32:26;;;;;;;;;;;17.40;85.10;;;;;;5033282;28;20164;-77
2023/06/03 07:34:52;;;;;;;;;;;17.50;85.30;;;;;;5029804;28;19913;-77
2023/06/03 07:37:17;;;;;;;;;;;17.50;84.60;;;;;;5033777;28;19913;-77
2023/06/03 07:39:43;;;;;;;;;;;17.60;84.80;;;;;;5040933;28;20630;-77
2023/06/03 07:42:19;;;;;;;;;;;17.60;84.20;;;;;;5040452;28;20381;-77
2023/06/03 07:44:45;;;;;;;;;;;17.50;84.60;;;;;;5029661;28;19982;-77
2023/06/03 07:47:12;;;;;;;;;;;17.50;84.70;;;;;;5030151;28;20085;-77
2023/06/03 07:49:38;;;;;;;;;;;17.50;84.70;;;;;;5037305;28;19912;-77
2023/06/03 07:52:04;;;;;;;;;;;17.50;84.50;;;;;;5028436;28;19924;-77
2023/06/03 07:54:29;;;;;;;;;;;17.70;84.40;;;;;;5037761;28;19912;-77
2023/06/03 07:56:56;;;;;;;;;;;17.80;84.00;;;;;;5027503;28;19919;-77
2023/06/03 07:59:21;;;;;;;;;;;17.80;83.80;;;;;;5034220;28;20338;-78
2023/06/03 08:01:50;;;;;;;;;;;17.80;83.60;;;;;;5039887;28;19913;-77
2023/06/03 08:04:26;;;;;;;;;;;17.70;83.70;;;;;;5037411;28;19913;-77
2023/06/03 08:06:52;;;;;;;;;;;17.80;83.60;;;;;;5040283;28;19912;-77
2023/06/03 08:09:24;;;;;;;;;;;17.80;84.00;;;;;;5029691;28;19913;-77
2023/06/03 08:11:49;;;;;;;;;;;17.90;83.70;;;;;;5030098;28;19952;-77
2023/06/03 08:14:15;;;;;;;;;;;18.10;83.70;;;;;;5029126;28;20016;-77
2023/06/03 08:16:40;;;;;;;;;;;18.20;82.80;;;;;;5031256;28;20590;-77
2023/06/03 08:19:07;;;;;;;;;;;18.30;82.20;;;;;;5027353;28;19960;-77
2023/06/03 08:21:33;;;;;;;;;;;18.30;82.20;;;;;;5025270;28;19920;-77
2023/06/03 08:23:59;;;;;;;;;;;18.50;82.40;;;;;;5030683;28;19952;-76
2023/06/03 08:26:26;;;;;;;;;;;18.30;82.30;;;;;;5036307;28;20047;-77
2023/06/03 08:28:52;;;;;;;;;;;18.30;82.70;;;;;;5032392;28;20050;-76
2023/06/03 08:31:17;;;;;;;;;;;18.40;82.00;;;;;;5040671;28;19932;-77
2023/06/03 08:33:43;;;;;;;;;;;18.50;82.30;;;;;;5039047;28;19974;-77
2023/06/03 08:36:09;;;;;;;;;;;18.60;82.10;;;;;;5040713;28;20057;-77
2023/06/03 08:38:34;;;;;;;;;;;18.60;82.70;;;;;;5040267;28;19971;-78
2023/06/03 08:41:00;;;;;;;;;;;18.80;81.70;;;;;;5035536;28;19913;-77
2023/06/03 08:43:29;;;;;;;;;;;18.90;80.90;;;;;;5032765;28;19939;-77
2023/06/03 08:45:55;;;;;;;;;;;19.10;80.90;;;;;;5041058;28;19909;-78
2023/06/03 08:48:36;;;;;;;;;;;19.10;80.60;;;;;;5022590;28;19970;-77
2023/06/03 08:51:05;;;;;;;;;;;19.20;79.70;;;;;;5033355;28;19982;-77
2023/06/03 08:53:40;;;;;;;;;;;19.50;79.70;;;;;;5035753;28;20719;-77
2023/06/03 08:56:06;;;;;;;;;;;19.50;79.20;;;;;;5038177;28;19989;-78
2023/06/03 08:58:35;;;;;;;;;;;19.70;78.80;;;;;;5038900;28;20470;-77
2023/06/03 09:01:01;;;;;;;;;;;19.90;78.00;;;;;;5031135;28;19912;-78
2023/06/03 09:03:26;;;;;;;;;;;20.20;76.70;;;;;;5042942;28;19923;-81
2023/06/03 09:05:53;;;;;;;;;;;20.70;75.20;;;;;;5037994;28;19922;-77
2023/06/03 09:08:19;;;;;;;;;;;21.20;74.30;;;;;;5036980;28;20019;-77
2023/06/03 09:10:46;;;;;;;;;;;22.30;71.70;;;;;;5044575;28;19927;-78
2023/06/03 09:13:13;;;;;;;;;;;22.80;69.50;;;;;;5033306;28;19956;-77
2023/06/03 09:15:41;;;;;;;;;;;23.10;68.90;;;;;;5029369;28;19952;-77
2023/06/03 09:18:06;;;;;;;;;;;22.80;68.30;;;;;;5038647;28;19913;-77
2023/06/03 09:20:34;;;;;;;;;;;22.80;68.80;;;;;;5038610;28;19915;-79
2023/06/03 09:23:01;;;;;;;;;;;22.50;68.90;;;;;;5033287;28;20478;-78
2023/06/03 09:25:26;;;;;;;;;;;22.60;69.10;;;;;;5039876;28;19920;-79
2023/06/03 09:27:52;;;;;;;;;;;22.80;68.40;;;;;;5030761;28;19912;-79
2023/06/03 09:30:18;;;;;;;;;;;23.30;66.90;;;;;;5027859;28;19960;-78
2023/06/03 09:32:44;;;;;;;;;;;24.00;64.30;;;;;;5036909;28;20019;-81
2023/06/03 09:35:10;;;;;;;;;;;25.50;60.60;;;;;;5040339;28;20699;-80
2023/06/03 09:37:35;;;;;;;;;;;25.40;60.10;;;;;;5037573;28;19913;-80
2023/06/03 09:40:03;;;;;;;;;;;27.40;57.30;;;;;;5035772;28;20477;-80
2023/06/03 09:42:42;;;;;;;;;;;26.60;56.30;;;;;;5037542;28;19913;-79
2023/06/03 09:45:21;;;;;;;;;;;25.80;59.30;;;;;;5038462;28;19951;-80
2023/06/03 09:47:47;;;;;;;;;;;25.70;60.70;;;;;;5034831;28;19943;-79
2023/06/03 09:50:12;;;;;;;;;;;25.00;60.70;;;;;;5038087;28;19988;-79
2023/06/03 09:52:38;;;;;;;;;;;25.10;61.30;;;;;;5037206;28;19917;-79
2023/06/03 09:55:05;;;;;;;;;;;25.10;60.60;;;;;;5040914;28;20012;-79
2023/06/03 09:57:30;;;;;;;;;;;25.10;60.10;;;;;;5040772;28;19995;-79
2023/06/03 10:00:04;;;;;;;;;;;25.90;60.20;;;;;;5036161;28;19918;-80
2023/06/03 10:02:30;;;;;;;;;;;26.90;59.30;;;;;;5038732;28;19917;-80
2023/06/03 10:04:57;;;;;;;;;;;26.50;58.60;;;;;;5042690;28;20429;-79
2023/06/03 10:07:22;;;;;;;;;;;26.20;56.60;;;;;;5042569;28;19913;-77
2023/06/03 10:09:49;;;;;;;;;;;26.40;57.70;;;;;;5035345;28;19913;-77
2023/06/03 10:12:15;;;;;;;;;;;27.10;56.80;;;;;;5041554;28;19928;-76
2023/06/03 10:14:44;;;;;;;;;;;29.80;53.20;;;;;;5039211;28;19924;-81
2023/06/03 10:17:11;;;;;;;;;;;29.90;52.40;;;;;;5031903;28;19939;-75
2023/06/03 10:19:37;;;;;;;;;;;28.10;53.50;;;;;;5036620;28;19912;-79
2023/06/03 10:22:04;;;;;;;;;;;26.90;58.30;;;;;;5036471;28;19919;-78
2023/06/03 10:24:30;;;;;;;;;;;27.10;58.50;;;;;;5031415;28;19912;-80
2023/06/03 10:26:56;;;;;;;;;;;26.20;59.10;;;;;;5039353;28;19956;-79
2023/06/03 10:29:22;;;;;;;;;;;26.80;58.00;;;;;;5022069;28;19964;-80
2023/06/03 10:31:49;;;;;;;;;;;28.60;58.90;;;;;;5019823;28;19951;-82
2023/06/03 10:34:15;;;;;;;;;;;29.10;55.80;;;;;;5018626;28;20571;-82
2023/06/03 10:36:48;;;;;;;;;;;28.70;56.60;;;;;;5020241;28;20341;-80
2023/06/03 10:39:14;;;;;;;;;;;27.80;58.50;;;;;;5024792;28;19913;-81
2023/06/03 10:41:40;;;;;;;;;;;28.20;57.90;;;;;;5041350;28;19966;-80
2023/06/03 10:44:06;;;;;;;;;;;29.10;57.10;;;;;;5021592;28;19917;-83
2023/06/03 10:46:35;;;;;;;;;;;29.20;56.60;;;;;;5013848;28;19921;-79
2023/06/03 10:49:02;;;;;;;;;;;28.70;57.80;;;;;;5017128;28;20443;-80
2023/06/03 10:51:36;;;;;;;;;;;27.70;60.50;;;;;;5016724;28;19921;-78
2023/06/03 10:54:08;;;;;;;;;;;27.30;60.60;;;;;;5029382;28;19919;-82
2023/06/03 10:56:46;;;;;;;;;;;26.70;60.00;;;;;;5021667;28;20008;-83
2023/06/03 10:59:16;;;;;;;;;;;26.50;63.20;;;;;;5018693;28;20380;-82
2023/06/03 11:02:01;;;;;;;;;;;25.80;64.20;;;;;;5019800;28;20003;-85
2023/06/03 11:04:27;;;;;;;;;;;25.50;63.60;;;;;;5013026;28;20031;-84
2023/06/03 11:06:53;;;;;;;;;;;25.30;65.20;;;;;;5016284;28;19974;-82
2023/06/03 11:09:37;;;;;;;;;;;25.00;67.20;;;;;;5017563;28;19912;-82
2023/06/03 11:12:05;;;;;;;;;;;25.00;64.50;;;;;;5020488;28;19931;-83
2023/06/03 11:14:32;;;;;;;;;;;25.00;64.40;;;;;;5012531;28;19979;-88
2023/06/03 11:16:58;;;;;;;;;;;24.90;65.80;;;;;;5017906;28;20387;-83
2023/06/03 11:19:37;;;;;;;;;;;25.10;66.70;;;;;;5013480;28;19940;-82
2023/06/03 11:22:07;;;;;;;;;;;25.20;66.80;;;;;;5008413;28;19918;-82
2023/06/03 11:24:42;;;;;;;;;;;25.10;65.10;;;;;;5010004;28;19920;-83
2023/06/03 11:27:12;;;;;;;;;;;25.00;65.30;;;;;;5015327;28;20342;-82
2023/06/03 11:29:41;;;;;;;;;;;24.80;67.50;;;;;;5022884;28;19925;-85
2023/06/03 11:32:17;;;;;;;;;;;24.70;65.10;;;;;;5032047;28;20379;-85
2023/06/03 11:34:43;;;;;;;;;;;24.60;64.60;;;;;;5029890;28;19912;-86
2023/06/03 11:37:11;;;;;;;;;;;24.40;64.50;;;;;;5032838;28;19958;-82
2023/06/03 11:39:55;;;;;;;;;;;24.60;67.70;;;;;;5037229;28;19986;-83
2023/06/03 11:42:21;;;;;;;;;;;24.70;69.30;;;;;;5033862;28;19923;-83
2023/06/03 11:44:47;;;;;;;;;;;24.70;68.80;;;;;;5040335;28;19917;-84
2023/06/03 11:47:12;;;;;;;;;;;24.70;68.00;;;;;;5033618;28;19912;-83
2023/06/03 11:49:38;;;;;;;;;;;24.80;67.00;;;;;;5028957;28;19923;-82
2023/06/03 11:52:05;;;;;;;;;;;24.70;65.70;;;;;;5032074;28;20059;-86
2023/06/03 11:54:31;;;;;;;;;;;24.70;70.70;;;;;;5015479;28;19913;-86
2023/06/03 11:56:59;;;;;;;;;;;24.60;67.50;;;;;;5018791;28;19912;-86
2023/06/03 11:59:32;;;;;;;;;;;24.30;66.90;;;;;;5016279;28;19917;-85
2023/06/03 12:01:58;;;;;;;;;;;24.40;69.90;;;;;;5031412;28;19920;-85
2023/06/03 12:04:24;;;;;;;;;;;24.30;69.90;;;;;;5040903;28;20287;-84
2023/06/03 12:06:49;;;;;;;;;;;24.20;69.10;;;;;;5038266;28;20121;-82
2023/06/03 12:09:18;;;;;;;;;;;24.10;69.00;;;;;;5037325;28;19913;-85
2023/06/03 12:11:44;;;;;;;;;;;24.00;68.40;;;;;;5033309;28;19917;-83
2023/06/03 12:14:10;;;;;;;;;;;23.90;65.00;;;;;;5032431;28;19913;-89
2023/06/03 12:16:36;;;;;;;;;;;23.90;68.10;;;;;;5027831;28;19967;-84
2023/06/03 12:19:03;;;;;;;;;;;24.00;67.00;;;;;;5034108;28;19919;-84
2023/06/03 12:21:29;;;;;;;;;;;23.80;65.00;;;;;;5031092;28;20397;-83
2023/06/03 12:23:56;;;;;;;;;;;23.80;63.90;;;;;;5038914;28;19920;-86
2023/06/03 12:26:23;;;;;;;;;;;23.80;64.20;;;;;;5032351;28;20443;-86
2023/06/03 12:28:49;;;;;;;;;;;23.70;64.20;;;;;;5031920;28;20015;-84
2023/06/03 12:31:15;;;;;;;;;;;23.90;67.70;;;;;;5026386;28;19932;-85
2023/06/03 12:33:42;;;;;;;;;;;24.10;68.80;;;;;;5030685;28;19978;-85
2023/06/03 12:36:08;;;;;;;;;;;24.10;68.60;;;;;;5037083;28;20002;-86
2023/06/03 12:38:33;;;;;;;;;;;24.20;67.70;;;;;;5033242;28;19919;-86
2023/06/03 12:41:08;;;;;;;;;;;24.30;69.20;;;;;;5039824;28;19909;-86
2023/06/03 12:43:34;;;;;;;;;;;24.40;68.30;;;;;;5039797;28;19917;-86
2023/06/03 12:46:18;;;;;;;;;;;24.40;66.80;;;;;;5033938;28;19909;-85
2023/06/03 12:48:47;;;;;;;;;;;24.60;66.80;;;;;;5032328;28;20438;-85
2023/06/03 12:51:25;;;;;;;;;;;24.60;69.00;;;;;;5028759;28;20020;-86
2023/06/03 12:53:55;;;;;;;;;;;24.70;66.40;;;;;;5035372;28;19920;-85
2023/06/03 12:56:25;;;;;;;;;;;24.90;66.40;;;;;;5037263;28;19915;-87
2023/06/03 12:58:53;;;;;;;;;;;25.10;64.90;;;;;;5036331;28;19912;-86
2023/06/03 13:01:19;;;;;;;;;;;25.20;64.90;;;;;;5038725;28;19916;-86
2023/06/03 13:03:45;;;;;;;;;;;25.30;65.10;;;;;;5024645;28;19909;-86
2023/06/03 13:06:11;;;;;;;;;;;25.20;59.20;;;;;;5033367;28;20347;-86
2023/06/03 13:08:37;;;;;;;;;;;25.30;59.60;;;;;;5034496;28;19908;-86
2023/06/03 13:11:02;;;;;;;;;;;25.60;62.50;;;;;;5026467;28;20008;-85
2023/06/03 13:13:33;;;;;;;;;;;25.50;55.70;;;;;;5022161;28;19913;-87
2023/06/03 13:16:01;;;;;;;;;;;25.80;60.30;;;;;;5025830;28;19916;-86
2023/06/03 13:18:27;;;;;;;;;;;26.20;62.50;;;;;;5036257;28;20021;-86
2023/06/03 13:20:53;;;;;;;;;;;26.20;61.10;;;;;;5027980;28;20023;-86
2023/06/03 13:23:19;;;;;;;;;;;26.20;60.00;;;;;;5034869;28;20591;-86
2023/06/03 13:25:44;;;;;;;;;;;26.20;59.20;;;;;;5036897;28;20719;-86
2023/06/03 13:28:10;;;;;;;;;;;26.40;61.80;;;;;;5032140;28;20410;-85
2023/06/03 13:30:35;;;;;;;;;;;26.50;60.40;;;;;;5042528;28;20007;-86
2023/06/03 13:33:01;;;;;;;;;;;26.40;59.80;;;;;;5039389;28;19963;-85
2023/06/03 13:35:27;;;;;;;;;;;26.40;60.00;;;;;;5033700;28;19909;-88
2023/06/03 13:37:52;;;;;;;;;;;26.20;59.60;;;;;;5031069;28;20384;-86
2023/06/03 13:40:18;;;;;;;;;;;26.10;57.60;;;;;;5036417;28;20383;-86
2023/06/03 13:42:43;;;;;;;;;;;26.20;59.80;;;;;;5033539;28;19909;-86
2023/06/03 13:45:10;;;;;;;;;;;26.20;60.70;;;;;;5034385;28;19909;-86
2023/06/03 13:47:36;;;;;;;;;;;26.10;63.50;;;;;;5034533;28;19996;-85
2023/06/03 13:50:02;;;;;;;;;;;26.10;63.70;;;;;;5033704;28;19970;-86
2023/06/03 13:52:27;;;;;;;;;;;26.10;62.30;;;;;;5035350;28;19927;-86
2023/06/03 13:54:53;;;;;;;;;;;26.10;58.60;;;;;;5031301;28;19913;-86
2023/06/03 13:57:19;;;;;;;;;;;26.00;56.50;;;;;;5024683;28;19909;-86
2023/06/03 13:59:44;;;;;;;;;;;26.10;54.00;;;;;;5028408;28;19916;-86
2023/06/03 14:02:12;;;;;;;;;;;25.90;53.80;;;;;;5030091;28;19909;-85
2023/06/03 14:04:37;;;;;;;;;;;26.20;54.10;;;;;;5027848;28;20338;-86
2023/06/03 14:07:03;;;;;;;;;;;26.20;55.00;;;;;;5035658;28;19913;-86
2023/06/03 14:09:29;;;;;;;;;;;26.00;56.30;;;;;;5025910;28;20070;-87
2023/06/03 14:11:55;;;;;;;;;;;25.60;54.30;;;;;;5037020;28;19919;-85
2023/06/03 14:14:21;;;;;;;;;;;25.50;55.80;;;;;;5025691;28;19909;-87
2023/06/03 14:16:47;;;;;;;;;;;25.20;54.60;;;;;;5030986;28;20280;-85